Airfield :
LOGIN :

Register | Disclaimer

   EN    FR    IT 

 










Legend :    VFR   Marginal VFR   IFR   Intensive IFR   Very Intensive IFR
Visi :
Ceiling :
>= 8 km
>= 3000ft
5 to 8 km
1000 to 3000 ft
1500m to 5 km
500 to 1000 ft
800 to 1500m
200 to 500 ft
< 800m
< 200 ft
Symbols :   Thunderstorms  Fog  Heavy snow  Heavy precipitations  Wind > 20 kt
SIGMETs :     Misc.  Thunderstorms  Icing  Turbulence  Mountain Waves  Volcanic Ashes







- Airport Elevation : 1300 ft
- IATA code : LIG
- Download approach charts


LFBL - Limoges

CURRENT METAR :
  • 150030Z AUTO 24006KT 9999 BKN007 OVC100 04/03 Q1003 TEMPO BKN008 SCT030TCU

EXPIRED METARs :
  • 150000Z AUTO 26010KT 9999 BKN008/// OVC012/// ///TCU 04/04 Q1003 TEMPO BKN038
  • 142330Z AUTO 24007KT 210V270 8000 RA SCT010 BKN017 BKN025 04/04 Q1003 TEMPO NSW BKN010 SCT030TCU
  • 142300Z AUTO 25007KT 9999 -RA SCT011 BKN018 BKN024 04/04 Q1003 TEMPO 2000 RA BKN004 BKN010TCU BECMG 25016G28KT
  • 142230Z AUTO 26010KT 9999 -RA BKN010/// BKN015/// OVC021/// ///TCU 04/03 Q1003 TEMPO 2000 RA BKN004 BKN010TCU BECMG 25016G28KT
  • 142200Z AUTO 27012KT 9999 RA BKN017/// OVC026/// ///TCU 04/03 Q1003 TEMPO 2000 RA BKN004 BKN010TCU BECMG 25016G28KT

TAF AMD TAF LFBL
Valid from the 15 at 00:00 until the 16 at 00:00 UTC


150025Z 1500/1524 26012KT 9999 BKN038
PROB30
TEMPO 1500/1509 -SHRA BKN008 SCT030TCU
TEMPO 1511/1517 28018G30KT 3000 SHRA BKN008 BKN030TCU
BECMG 1517/1519 BKN020
BECMG 1520/1522 SCT008
ATIS : +33 5 55 48 40 37
No reported NOTAMs for that airfield.
2 SIGMETs reported for the Bordeaux FIR (LFBB) :
 
Severe turbulence
LFBB SIGMET 9 VALID 142300/150300 LFPW
LFBB BORDEAUX FIR/UIR SEV TURB FCST WI N4700 E00215 - N4630 E00300 - N4430 E00245 - N4430 E00200 - N4645 E00115 - N4700 E00215 FL170/280 STNR WKN=
Severe turbulence
LFBB SIGMET 10 VALID 142300/150300 LFPW
LFBB BORDEAUX FIR/UIR SEV TURB FCST WI N4300 W00115 - N4300 W00145 - N4630 W00130 - N4630 W00100 - N4615 W00100 - N4300 W00115 SFC/FL050 STNR WKN=



MET'MAP, your aeronautical weather chart ! - Copyright ORBIFLY December 2007 - Disclaimer

ORBIFLY MET'MAP TEAM :

Programming & Development : Alexandra Zaïnal
Concept & Development : Baudouin d'Aumeries
Co-Development & Prog : Marc-Olivier Méhu
Technical & hardware support : Manuel Goepfert

Contact : metmap@orbifly.com




SOURCES & CREDITS :

   NOAA